sensor_id;sensor_type;location;lat;lon;timestamp;P1;durP1;ratioP1;P2;durP2;ratioP2
3683;SDS011;1858;48.716;9.648;2022-10-31T00:01:41;2.90;;;1.63;;
3683;SDS011;1858;48.716;9.648;2022-10-31T00:04:09;5.37;;;1.33;;
3683;SDS011;1858;48.716;9.648;2022-10-31T00:06:37;3.63;;;1.47;;
3683;SDS011;1858;48.716;9.648;2022-10-31T00:09:06;2.63;;;1.57;;
3683;SDS011;1858;48.716;9.648;2022-10-31T00:11:34;7.43;;;2.40;;
3683;SDS011;1858;48.716;9.648;2022-10-31T00:16:50;2.77;;;1.93;;
3683;SDS011;1858;48.716;9.648;2022-10-31T00:22:06;2.87;;;1.80;;
3683;SDS011;1858;48.716;9.648;2022-10-31T00:24:35;4.03;;;2.00;;
3683;SDS011;1858;48.716;9.648;2022-10-31T00:29:51;4.03;;;1.63;;
3683;SDS011;1858;48.716;9.648;2022-10-31T00:32:19;6.67;;;1.97;;
3683;SDS011;1858;48.716;9.648;2022-10-31T00:34:47;3.30;;;1.70;;
3683;SDS011;1858;48.716;9.648;2022-10-31T00:37:16;5.13;;;2.70;;
3683;SDS011;1858;48.716;9.648;2022-10-31T00:39:44;2.70;;;1.47;;
3683;SDS011;1858;48.716;9.648;2022-10-31T00:42:14;3.10;;;1.33;;
3683;SDS011;1858;48.716;9.648;2022-10-31T00:44:43;2.33;;;1.20;;
3683;SDS011;1858;48.716;9.648;2022-10-31T00:47:11;5.63;;;1.57;;
3683;SDS011;1858;48.716;9.648;2022-10-31T00:49:39;4.03;;;1.60;;
3683;SDS011;1858;48.716;9.648;2022-10-31T00:52:08;5.60;;;1.60;;
3683;SDS011;1858;48.716;9.648;2022-10-31T00:54:36;4.03;;;1.40;;
3683;SDS011;1858;48.716;9.648;2022-10-31T00:57:04;4.33;;;1.80;;
3683;SDS011;1858;48.716;9.648;2022-10-31T01:02:20;3.20;;;1.57;;
3683;SDS011;1858;48.716;9.648;2022-10-31T01:04:49;5.33;;;1.90;;
3683;SDS011;1858;48.716;9.648;2022-10-31T01:07:17;5.00;;;1.63;;
3683;SDS011;1858;48.716;9.648;2022-10-31T01:09:46;2.50;;;1.13;;
3683;SDS011;1858;48.716;9.648;2022-10-31T01:12:14;4.93;;;1.43;;
3683;SDS011;1858;48.716;9.648;2022-10-31T01:17:30;3.50;;;1.60;;
3683;SDS011;1858;48.716;9.648;2022-10-31T01:19:59;2.50;;;1.40;;
3683;SDS011;1858;48.716;9.648;2022-10-31T01:22:27;2.80;;;1.53;;
3683;SDS011;1858;48.716;9.648;2022-10-31T01:24:55;4.90;;;2.00;;
3683;SDS011;1858;48.716;9.648;2022-10-31T01:27:24;2.67;;;1.67;;
3683;SDS011;1858;48.716;9.648;2022-10-31T01:29:52;3.93;;;2.00;;
3683;SDS011;1858;48.716;9.648;2022-10-31T01:32:21;5.60;;;2.70;;
3683;SDS011;1858;48.716;9.648;2022-10-31T01:34:49;1.80;;;1.20;;
3683;SDS011;1858;48.716;9.648;2022-10-31T01:37:18;2.40;;;1.20;;
3683;SDS011;1858;48.716;9.648;2022-10-31T01:39:47;2.73;;;1.47;;
3683;SDS011;1858;48.716;9.648;2022-10-31T01:42:35;3.80;;;1.10;;
3683;SDS011;1858;48.716;9.648;2022-10-31T01:45:09;6.30;;;1.97;;
3683;SDS011;1858;48.716;9.648;2022-10-31T01:47:53;4.27;;;1.27;;
3683;SDS011;1858;48.716;9.648;2022-10-31T01:50:30;4.60;;;2.30;;
3683;SDS011;1858;48.716;9.648;2022-10-31T01:53:14;2.90;;;1.43;;
3683;SDS011;1858;48.716;9.648;2022-10-31T01:55:44;2.27;;;1.43;;
3683;SDS011;1858;48.716;9.648;2022-10-31T02:01:22;3.13;;;2.00;;
3683;SDS011;1858;48.716;9.648;2022-10-31T02:03:50;3.60;;;1.37;;
3683;SDS011;1858;48.716;9.648;2022-10-31T02:09:08;4.43;;;1.67;;
3683;SDS011;1858;48.716;9.648;2022-10-31T02:11:39;6.30;;;1.53;;
3683;SDS011;1858;48.716;9.648;2022-10-31T02:14:08;6.13;;;1.40;;
3683;SDS011;1858;48.716;9.648;2022-10-31T02:16:37;2.40;;;1.33;;
3683;SDS011;1858;48.716;9.648;2022-10-31T02:19:05;2.40;;;1.60;;
3683;SDS011;1858;48.716;9.648;2022-10-31T02:21:42;3.63;;;1.60;;
3683;SDS011;1858;48.716;9.648;2022-10-31T02:27:32;5.00;;;1.87;;
3683;SDS011;1858;48.716;9.648;2022-10-31T02:32:52;4.70;;;1.67;;
3683;SDS011;1858;48.716;9.648;2022-10-31T02:35:41;2.37;;;1.33;;
3683;SDS011;1858;48.716;9.648;2022-10-31T02:38:18;3.20;;;1.70;;
3683;SDS011;1858;48.716;9.648;2022-10-31T02:40:53;2.13;;;1.30;;
3683;SDS011;1858;48.716;9.648;2022-10-31T02:43:43;5.53;;;1.90;;
3683;SDS011;1858;48.716;9.648;2022-10-31T02:49:40;5.03;;;1.60;;
3683;SDS011;1858;48.716;9.648;2022-10-31T02:52:29;4.03;;;2.00;;
3683;SDS011;1858;48.716;9.648;2022-10-31T02:55:08;2.47;;;1.33;;
3683;SDS011;1858;48.716;9.648;2022-10-31T02:58:09;2.70;;;1.70;;
3683;SDS011;1858;48.716;9.648;2022-10-31T03:10:03;3.47;;;1.50;;
3683;SDS011;1858;48.716;9.648;2022-10-31T03:13:51;3.93;;;1.77;;
3683;SDS011;1858;48.716;9.648;2022-10-31T03:18:52;2.37;;;1.47;;
3683;SDS011;1858;48.716;9.648;2022-10-31T03:21:36;6.10;;;1.70;;
3683;SDS011;1858;48.716;9.648;2022-10-31T03:27:22;4.57;;;1.60;;
3683;SDS011;1858;48.716;9.648;2022-10-31T03:30:09;3.27;;;1.43;;
3683;SDS011;1858;48.716;9.648;2022-10-31T03:32:43;4.67;;;1.70;;
3683;SDS011;1858;48.716;9.648;2022-10-31T03:35:10;3.57;;;1.70;;
3683;SDS011;1858;48.716;9.648;2022-10-31T03:37:41;2.10;;;1.33;;
3683;SDS011;1858;48.716;9.648;2022-10-31T03:40:10;8.93;;;3.03;;
3683;SDS011;1858;48.716;9.648;2022-10-31T03:42:43;3.03;;;1.43;;
3683;SDS011;1858;48.716;9.648;2022-10-31T03:45:19;4.37;;;1.67;;
3683;SDS011;1858;48.716;9.648;2022-10-31T03:48:04;2.77;;;1.03;;
3683;SDS011;1858;48.716;9.648;2022-10-31T03:50:38;4.33;;;1.47;;
3683;SDS011;1858;48.716;9.648;2022-10-31T03:53:14;2.00;;;1.10;;
3683;SDS011;1858;48.716;9.648;2022-10-31T03:56:15;4.80;;;1.37;;
3683;SDS011;1858;48.716;9.648;2022-10-31T03:59:16;2.70;;;1.37;;
3683;SDS011;1858;48.716;9.648;2022-10-31T04:04:16;4.57;;;1.70;;
3683;SDS011;1858;48.716;9.648;2022-10-31T04:09:35;6.33;;;2.13;;
3683;SDS011;1858;48.716;9.648;2022-10-31T04:12:06;2.53;;;1.37;;
3683;SDS011;1858;48.716;9.648;2022-10-31T04:14:37;2.87;;;1.60;;
3683;SDS011;1858;48.716;9.648;2022-10-31T04:17:07;2.43;;;1.20;;
3683;SDS011;1858;48.716;9.648;2022-10-31T04:19:38;5.13;;;1.70;;
3683;SDS011;1858;48.716;9.648;2022-10-31T04:22:07;7.67;;;2.43;;
3683;SDS011;1858;48.716;9.648;2022-10-31T04:24:36;4.23;;;3.40;;
3683;SDS011;1858;48.716;9.648;2022-10-31T04:29:48;4.60;;;1.40;;
3683;SDS011;1858;48.716;9.648;2022-10-31T04:35:06;2.40;;;1.60;;
3683;SDS011;1858;48.716;9.648;2022-10-31T04:37:53;3.87;;;2.00;;
3683;SDS011;1858;48.716;9.648;2022-10-31T04:40:22;2.97;;;1.33;;
3683;SDS011;1858;48.716;9.648;2022-10-31T04:42:50;4.57;;;1.60;;
3683;SDS011;1858;48.716;9.648;2022-10-31T04:45:18;2.10;;;1.30;;
3683;SDS011;1858;48.716;9.648;2022-10-31T04:47:47;3.10;;;1.63;;
3683;SDS011;1858;48.716;9.648;2022-10-31T04:53:03;3.60;;;1.70;;
3683;SDS011;1858;48.716;9.648;2022-10-31T04:55:32;4.50;;;1.43;;
3683;SDS011;1858;48.716;9.648;2022-10-31T04:58:00;3.80;;;1.60;;
3683;SDS011;1858;48.716;9.648;2022-10-31T05:00:28;5.87;;;2.03;;
3683;SDS011;1858;48.716;9.648;2022-10-31T05:02:57;3.40;;;1.50;;
3683;SDS011;1858;48.716;9.648;2022-10-31T05:05:27;5.20;;;1.27;;
3683;SDS011;1858;48.716;9.648;2022-10-31T05:10:45;2.63;;;1.53;;
3683;SDS011;1858;48.716;9.648;2022-10-31T05:13:14;3.60;;;1.50;;
3683;SDS011;1858;48.716;9.648;2022-10-31T05:15:42;5.00;;;2.13;;
3683;SDS011;1858;48.716;9.648;2022-10-31T05:18:11;2.63;;;1.57;;
3683;SDS011;1858;48.716;9.648;2022-10-31T05:20:39;5.73;;;1.90;;
3683;SDS011;1858;48.716;9.648;2022-10-31T05:23:07;3.27;;;1.17;;
3683;SDS011;1858;48.716;9.648;2022-10-31T05:25:36;3.07;;;1.20;;
3683;SDS011;1858;48.716;9.648;2022-10-31T05:28:04;2.60;;;1.17;;
3683;SDS011;1858;48.716;9.648;2022-10-31T05:30:33;9.83;;;1.23;;
3683;SDS011;1858;48.716;9.648;2022-10-31T05:33:02;3.37;;;1.27;;
3683;SDS011;1858;48.716;9.648;2022-10-31T05:35:31;3.73;;;1.43;;
3683;SDS011;1858;48.716;9.648;2022-10-31T05:41:07;4.13;;;2.20;;
3683;SDS011;1858;48.716;9.648;2022-10-31T05:46:24;5.60;;;3.00;;
3683;SDS011;1858;48.716;9.648;2022-10-31T05:48:52;2.57;;;1.70;;
3683;SDS011;1858;48.716;9.648;2022-10-31T05:51:20;11.97;;;2.60;;
3683;SDS011;1858;48.716;9.648;2022-10-31T05:53:49;2.30;;;1.53;;
3683;SDS011;1858;48.716;9.648;2022-10-31T05:56:17;4.07;;;1.53;;
3683;SDS011;1858;48.716;9.648;2022-10-31T05:58:46;3.43;;;1.70;;
3683;SDS011;1858;48.716;9.648;2022-10-31T06:01:14;2.57;;;1.10;;
3683;SDS011;1858;48.716;9.648;2022-10-31T06:03:43;1.73;;;1.10;;
3683;SDS011;1858;48.716;9.648;2022-10-31T06:06:11;3.70;;;2.17;;
3683;SDS011;1858;48.716;9.648;2022-10-31T06:08:40;2.47;;;1.37;;
3683;SDS011;1858;48.716;9.648;2022-10-31T06:11:08;3.17;;;1.93;;
3683;SDS011;1858;48.716;9.648;2022-10-31T06:13:37;3.70;;;1.70;;
3683;SDS011;1858;48.716;9.648;2022-10-31T06:16:05;6.90;;;2.10;;
3683;SDS011;1858;48.716;9.648;2022-10-31T06:18:34;4.40;;;1.87;;
3683;SDS011;1858;48.716;9.648;2022-10-31T06:21:02;5.50;;;1.93;;
3683;SDS011;1858;48.716;9.648;2022-10-31T06:23:51;2.10;;;1.20;;
3683;SDS011;1858;48.716;9.648;2022-10-31T06:26:20;3.10;;;1.50;;
3683;SDS011;1858;48.716;9.648;2022-10-31T06:28:48;4.53;;;2.60;;
3683;SDS011;1858;48.716;9.648;2022-10-31T06:31:17;2.60;;;1.43;;
3683;SDS011;1858;48.716;9.648;2022-10-31T06:33:45;3.50;;;1.57;;
3683;SDS011;1858;48.716;9.648;2022-10-31T06:36:14;2.30;;;1.60;;
3683;SDS011;1858;48.716;9.648;2022-10-31T06:38:42;4.77;;;1.80;;
3683;SDS011;1858;48.716;9.648;2022-10-31T06:41:11;3.30;;;1.60;;
3683;SDS011;1858;48.716;9.648;2022-10-31T06:43:39;3.27;;;1.13;;
3683;SDS011;1858;48.716;9.648;2022-10-31T06:46:08;2.70;;;1.33;;
3683;SDS011;1858;48.716;9.648;2022-10-31T06:48:36;2.50;;;2.10;;
3683;SDS011;1858;48.716;9.648;2022-10-31T06:51:05;2.63;;;1.27;;
3683;SDS011;1858;48.716;9.648;2022-10-31T06:53:33;3.83;;;2.23;;
3683;SDS011;1858;48.716;9.648;2022-10-31T06:56:02;2.57;;;1.47;;
3683;SDS011;1858;48.716;9.648;2022-10-31T06:58:31;3.63;;;1.67;;
3683;SDS011;1858;48.716;9.648;2022-10-31T07:01:00;5.40;;;1.57;;
3683;SDS011;1858;48.716;9.648;2022-10-31T07:03:29;2.17;;;1.20;;
3683;SDS011;1858;48.716;9.648;2022-10-31T07:05:57;3.00;;;1.80;;
3683;SDS011;1858;48.716;9.648;2022-10-31T07:08:26;1.90;;;1.07;;
3683;SDS011;1858;48.716;9.648;2022-10-31T07:10:55;6.87;;;1.57;;
3683;SDS011;1858;48.716;9.648;2022-10-31T07:13:24;1.97;;;1.20;;
3683;SDS011;1858;48.716;9.648;2022-10-31T07:15:53;6.40;;;2.37;;
3683;SDS011;1858;48.716;9.648;2022-10-31T07:18:24;3.83;;;1.20;;
3683;SDS011;1858;48.716;9.648;2022-10-31T07:20:52;3.87;;;2.10;;
3683;SDS011;1858;48.716;9.648;2022-10-31T07:23:21;6.60;;;4.10;;
3683;SDS011;1858;48.716;9.648;2022-10-31T07:25:54;2.90;;;1.40;;
3683;SDS011;1858;48.716;9.648;2022-10-31T07:28:24;2.50;;;1.37;;
3683;SDS011;1858;48.716;9.648;2022-10-31T07:30:54;3.27;;;2.03;;
3683;SDS011;1858;48.716;9.648;2022-10-31T07:33:24;12.67;;;1.67;;
3683;SDS011;1858;48.716;9.648;2022-10-31T07:39:01;7.30;;;1.60;;
3683;SDS011;1858;48.716;9.648;2022-10-31T07:41:30;4.97;;;2.37;;
3683;SDS011;1858;48.716;9.648;2022-10-31T07:43:58;6.97;;;2.33;;
3683;SDS011;1858;48.716;9.648;2022-10-31T07:46:26;5.10;;;1.93;;
3683;SDS011;1858;48.716;9.648;2022-10-31T07:48:55;2.80;;;1.27;;
3683;SDS011;1858;48.716;9.648;2022-10-31T07:51:23;3.77;;;1.97;;
3683;SDS011;1858;48.716;9.648;2022-10-31T07:53:53;2.67;;;1.47;;
3683;SDS011;1858;48.716;9.648;2022-10-31T07:56:21;4.80;;;2.00;;
3683;SDS011;1858;48.716;9.648;2022-10-31T07:58:49;3.40;;;1.97;;
3683;SDS011;1858;48.716;9.648;2022-10-31T08:01:18;3.73;;;2.60;;
3683;SDS011;1858;48.716;9.648;2022-10-31T08:03:46;8.27;;;2.20;;
3683;SDS011;1858;48.716;9.648;2022-10-31T08:06:14;6.10;;;2.67;;
3683;SDS011;1858;48.716;9.648;2022-10-31T08:08:43;6.73;;;2.50;;
3683;SDS011;1858;48.716;9.648;2022-10-31T08:11:11;3.93;;;2.47;;
3683;SDS011;1858;48.716;9.648;2022-10-31T08:13:39;3.20;;;2.13;;
3683;SDS011;1858;48.716;9.648;2022-10-31T08:16:09;4.00;;;2.80;;
3683;SDS011;1858;48.716;9.648;2022-10-31T08:18:37;9.73;;;2.10;;
3683;SDS011;1858;48.716;9.648;2022-10-31T08:21:06;4.63;;;2.33;;
3683;SDS011;1858;48.716;9.648;2022-10-31T08:23:34;14.80;;;2.93;;
3683;SDS011;1858;48.716;9.648;2022-10-31T08:26:03;11.83;;;6.93;;
3683;SDS011;1858;48.716;9.648;2022-10-31T08:28:32;2.33;;;1.50;;
3683;SDS011;1858;48.716;9.648;2022-10-31T08:31:01;3.27;;;1.90;;
3683;SDS011;1858;48.716;9.648;2022-10-31T08:36:17;11.37;;;2.20;;
3683;SDS011;1858;48.716;9.648;2022-10-31T08:38:46;6.20;;;2.37;;
3683;SDS011;1858;48.716;9.648;2022-10-31T08:41:15;4.97;;;2.37;;
3683;SDS011;1858;48.716;9.648;2022-10-31T08:43:43;4.73;;;1.73;;
3683;SDS011;1858;48.716;9.648;2022-10-31T08:46:12;2.80;;;1.73;;
3683;SDS011;1858;48.716;9.648;2022-10-31T08:48:40;11.20;;;2.63;;
3683;SDS011;1858;48.716;9.648;2022-10-31T08:51:09;2.80;;;1.83;;
3683;SDS011;1858;48.716;9.648;2022-10-31T08:53:38;2.90;;;1.70;;
3683;SDS011;1858;48.716;9.648;2022-10-31T08:56:06;8.20;;;2.37;;
3683;SDS011;1858;48.716;9.648;2022-10-31T08:58:35;9.30;;;2.00;;
3683;SDS011;1858;48.716;9.648;2022-10-31T09:01:03;4.77;;;2.67;;
3683;SDS011;1858;48.716;9.648;2022-10-31T09:03:32;5.20;;;2.23;;
3683;SDS011;1858;48.716;9.648;2022-10-31T09:06:01;3.47;;;2.00;;
3683;SDS011;1858;48.716;9.648;2022-10-31T09:08:32;3.77;;;2.03;;
3683;SDS011;1858;48.716;9.648;2022-10-31T09:11:21;11.63;;;2.37;;
3683;SDS011;1858;48.716;9.648;2022-10-31T09:13:49;3.70;;;1.93;;
3683;SDS011;1858;48.716;9.648;2022-10-31T09:16:20;4.70;;;2.43;;
3683;SDS011;1858;48.716;9.648;2022-10-31T09:21:36;11.40;;;2.30;;
3683;SDS011;1858;48.716;9.648;2022-10-31T09:24:04;4.67;;;2.40;;
3683;SDS011;1858;48.716;9.648;2022-10-31T09:26:33;4.50;;;1.70;;
3683;SDS011;1858;48.716;9.648;2022-10-31T09:29:02;6.33;;;2.77;;
3683;SDS011;1858;48.716;9.648;2022-10-31T09:31:31;3.53;;;2.20;;
3683;SDS011;1858;48.716;9.648;2022-10-31T09:36:47;5.00;;;3.43;;
3683;SDS011;1858;48.716;9.648;2022-10-31T09:39:15;6.53;;;2.23;;
3683;SDS011;1858;48.716;9.648;2022-10-31T09:47:14;4.70;;;2.27;;
3683;SDS011;1858;48.716;9.648;2022-10-31T09:50:11;6.17;;;2.73;;
3683;SDS011;1858;48.716;9.648;2022-10-31T09:52:47;5.23;;;2.27;;
3683;SDS011;1858;48.716;9.648;2022-10-31T09:55:19;5.43;;;2.30;;
3683;SDS011;1858;48.716;9.648;2022-10-31T09:57:58;8.23;;;1.83;;
3683;SDS011;1858;48.716;9.648;2022-10-31T10:00:28;3.70;;;2.37;;
3683;SDS011;1858;48.716;9.648;2022-10-31T10:09:07;2.80;;;1.70;;
3683;SDS011;1858;48.716;9.648;2022-10-31T10:14:12;4.53;;;2.27;;
3683;SDS011;1858;48.716;9.648;2022-10-31T10:20:03;4.80;;;1.87;;
3683;SDS011;1858;48.716;9.648;2022-10-31T10:22:46;5.03;;;2.43;;
3683;SDS011;1858;48.716;9.648;2022-10-31T10:25:16;5.00;;;1.60;;
3683;SDS011;1858;48.716;9.648;2022-10-31T10:27:52;3.10;;;1.63;;
3683;SDS011;1858;48.716;9.648;2022-10-31T10:30:34;6.60;;;1.53;;
3683;SDS011;1858;48.716;9.648;2022-10-31T10:33:55;4.23;;;1.40;;
3683;SDS011;1858;48.716;9.648;2022-10-31T10:36:43;11.43;;;2.50;;
3683;SDS011;1858;48.716;9.648;2022-10-31T10:38:37;4.63;;;2.30;;
3683;SDS011;1858;48.716;9.648;2022-10-31T10:44:09;3.70;;;2.33;;
3683;SDS011;1858;48.716;9.648;2022-10-31T10:49:45;10.83;;;2.33;;
3683;SDS011;1858;48.716;9.648;2022-10-31T10:52:22;2.87;;;1.90;;
3683;SDS011;1858;48.716;9.648;2022-10-31T10:58:00;9.83;;;2.17;;
3683;SDS011;1858;48.716;9.648;2022-10-31T11:00:48;5.13;;;2.03;;
3683;SDS011;1858;48.716;9.648;2022-10-31T11:03:14;5.13;;;2.07;;
3683;SDS011;1858;48.716;9.648;2022-10-31T11:06:02;4.30;;;1.43;;
3683;SDS011;1858;48.716;9.648;2022-10-31T11:08:35;4.33;;;2.07;;
3683;SDS011;1858;48.716;9.648;2022-10-31T11:11:14;3.50;;;1.80;;
3683;SDS011;1858;48.716;9.648;2022-10-31T11:13:35;5.30;;;2.33;;
3683;SDS011;1858;48.716;9.648;2022-10-31T11:16:07;3.33;;;1.70;;
3683;SDS011;1858;48.716;9.648;2022-10-31T11:18:45;10.07;;;2.33;;
3683;SDS011;1858;48.716;9.648;2022-10-31T11:21:21;2.57;;;1.50;;
3683;SDS011;1858;48.716;9.648;2022-10-31T11:26:45;3.33;;;1.97;;
3683;SDS011;1858;48.716;9.648;2022-10-31T11:29:22;4.10;;;1.97;;
3683;SDS011;1858;48.716;9.648;2022-10-31T11:31:57;3.93;;;2.23;;
3683;SDS011;1858;48.716;9.648;2022-10-31T11:34:27;4.80;;;2.10;;
3683;SDS011;1858;48.716;9.648;2022-10-31T11:37:25;12.80;;;1.77;;
3683;SDS011;1858;48.716;9.648;2022-10-31T11:45:46;3.30;;;2.50;;
3683;SDS011;1858;48.716;9.648;2022-10-31T11:48:20;5.33;;;2.33;;
3683;SDS011;1858;48.716;9.648;2022-10-31T11:50:56;9.67;;;5.40;;
3683;SDS011;1858;48.716;9.648;2022-10-31T11:53:50;3.47;;;2.00;;
3683;SDS011;1858;48.716;9.648;2022-10-31T11:56:16;3.43;;;1.73;;
3683;SDS011;1858;48.716;9.648;2022-10-31T11:58:54;5.10;;;2.77;;
3683;SDS011;1858;48.716;9.648;2022-10-31T12:01:26;4.97;;;2.87;;
3683;SDS011;1858;48.716;9.648;2022-10-31T12:06:46;3.27;;;2.27;;
3683;SDS011;1858;48.716;9.648;2022-10-31T12:09:22;4.33;;;2.20;;
3683;SDS011;1858;48.716;9.648;2022-10-31T12:11:56;7.63;;;1.90;;
3683;SDS011;1858;48.716;9.648;2022-10-31T12:14:58;7.73;;;1.80;;
3683;SDS011;1858;48.716;9.648;2022-10-31T12:23:51;2.80;;;1.40;;
3683;SDS011;1858;48.716;9.648;2022-10-31T12:27:10;11.63;;;2.20;;
3683;SDS011;1858;48.716;9.648;2022-10-31T12:29:53;3.80;;;1.97;;
3683;SDS011;1858;48.716;9.648;2022-10-31T12:33:18;5.53;;;1.77;;
3683;SDS011;1858;48.716;9.648;2022-10-31T12:44:57;5.17;;;2.37;;
3683;SDS011;1858;48.716;9.648;2022-10-31T12:59:34;13.30;;;2.37;;
3683;SDS011;1858;48.716;9.648;2022-10-31T13:02:20;6.47;;;2.30;;
3683;SDS011;1858;48.716;9.648;2022-10-31T13:05:13;2.93;;;1.87;;
3683;SDS011;1858;48.716;9.648;2022-10-31T13:08:02;4.97;;;2.07;;
3683;SDS011;1858;48.716;9.648;2022-10-31T13:13:16;5.73;;;2.30;;
3683;SDS011;1858;48.716;9.648;2022-10-31T13:16:10;7.80;;;3.60;;
3683;SDS011;1858;48.716;9.648;2022-10-31T13:19:03;3.00;;;1.70;;
3683;SDS011;1858;48.716;9.648;2022-10-31T13:21:35;18.43;;;8.30;;
3683;SDS011;1858;48.716;9.648;2022-10-31T13:24:03;8.47;;;2.83;;
3683;SDS011;1858;48.716;9.648;2022-10-31T13:26:38;3.30;;;2.60;;
3683;SDS011;1858;48.716;9.648;2022-10-31T13:29:39;6.33;;;2.83;;
3683;SDS011;1858;48.716;9.648;2022-10-31T13:32:10;3.23;;;1.90;;
3683;SDS011;1858;48.716;9.648;2022-10-31T13:34:57;9.03;;;2.60;;
3683;SDS011;1858;48.716;9.648;2022-10-31T13:37:48;5.13;;;2.97;;
3683;SDS011;1858;48.716;9.648;2022-10-31T13:40:37;16.43;;;6.50;;
3683;SDS011;1858;48.716;9.648;2022-10-31T13:43:28;4.50;;;2.10;;
3683;SDS011;1858;48.716;9.648;2022-10-31T13:45:57;6.17;;;3.20;;
3683;SDS011;1858;48.716;9.648;2022-10-31T13:51:00;7.53;;;3.07;;
3683;SDS011;1858;48.716;9.648;2022-10-31T13:56:28;7.23;;;1.90;;
3683;SDS011;1858;48.716;9.648;2022-10-31T13:59:19;8.23;;;2.60;;
3683;SDS011;1858;48.716;9.648;2022-10-31T14:02:14;3.70;;;1.50;;
3683;SDS011;1858;48.716;9.648;2022-10-31T14:04:46;3.00;;;1.93;;
3683;SDS011;1858;48.716;9.648;2022-10-31T14:07:22;3.20;;;1.90;;
3683;SDS011;1858;48.716;9.648;2022-10-31T14:10:07;4.23;;;1.80;;
3683;SDS011;1858;48.716;9.648;2022-10-31T14:13:03;4.83;;;1.63;;
3683;SDS011;1858;48.716;9.648;2022-10-31T14:15:56;4.57;;;2.00;;
3683;SDS011;1858;48.716;9.648;2022-10-31T14:18:39;4.87;;;2.17;;
3683;SDS011;1858;48.716;9.648;2022-10-31T14:21:30;4.87;;;2.10;;
3683;SDS011;1858;48.716;9.648;2022-10-31T14:24:00;5.47;;;3.33;;
3683;SDS011;1858;48.716;9.648;2022-10-31T14:26:32;3.27;;;1.60;;
3683;SDS011;1858;48.716;9.648;2022-10-31T14:31:52;8.10;;;1.90;;
3683;SDS011;1858;48.716;9.648;2022-10-31T14:34:30;6.87;;;2.70;;
3683;SDS011;1858;48.716;9.648;2022-10-31T14:37:25;5.00;;;2.17;;
3683;SDS011;1858;48.716;9.648;2022-10-31T14:46:09;3.90;;;2.17;;
3683;SDS011;1858;48.716;9.648;2022-10-31T14:52:19;8.43;;;2.03;;
3683;SDS011;1858;48.716;9.648;2022-10-31T14:54:49;6.60;;;2.43;;
3683;SDS011;1858;48.716;9.648;2022-10-31T14:57:47;3.60;;;1.80;;
3683;SDS011;1858;48.716;9.648;2022-10-31T15:00:12;11.17;;;2.77;;
3683;SDS011;1858;48.716;9.648;2022-10-31T15:03:11;5.57;;;2.57;;
3683;SDS011;1858;48.716;9.648;2022-10-31T15:05:56;5.53;;;1.90;;
3683;SDS011;1858;48.716;9.648;2022-10-31T15:08:29;9.30;;;2.20;;
3683;SDS011;1858;48.716;9.648;2022-10-31T15:16:40;6.87;;;2.53;;
3683;SDS011;1858;48.716;9.648;2022-10-31T15:19:13;7.80;;;2.30;;
3683;SDS011;1858;48.716;9.648;2022-10-31T15:21:43;14.10;;;2.37;;
3683;SDS011;1858;48.716;9.648;2022-10-31T15:24:13;3.67;;;2.67;;
3683;SDS011;1858;48.716;9.648;2022-10-31T15:26:45;3.07;;;2.17;;
3683;SDS011;1858;48.716;9.648;2022-10-31T15:29:20;9.00;;;2.53;;
3683;SDS011;1858;48.716;9.648;2022-10-31T15:31:50;9.40;;;2.03;;
3683;SDS011;1858;48.716;9.648;2022-10-31T15:40:25;9.03;;;2.57;;
3683;SDS011;1858;48.716;9.648;2022-10-31T15:45:43;4.60;;;2.17;;
3683;SDS011;1858;48.716;9.648;2022-10-31T15:48:18;9.47;;;3.90;;
3683;SDS011;1858;48.716;9.648;2022-10-31T15:50:49;5.73;;;4.00;;
3683;SDS011;1858;48.716;9.648;2022-10-31T15:53:32;9.93;;;2.90;;
3683;SDS011;1858;48.716;9.648;2022-10-31T15:56:07;4.83;;;2.77;;
3683;SDS011;1858;48.716;9.648;2022-10-31T15:58:44;7.70;;;3.13;;
3683;SDS011;1858;48.716;9.648;2022-10-31T16:01:19;7.27;;;2.37;;
3683;SDS011;1858;48.716;9.648;2022-10-31T16:06:41;5.33;;;2.80;;
3683;SDS011;1858;48.716;9.648;2022-10-31T16:11:57;4.80;;;2.27;;
3683;SDS011;1858;48.716;9.648;2022-10-31T16:14:27;8.83;;;2.13;;
3683;SDS011;1858;48.716;9.648;2022-10-31T16:16:58;4.00;;;2.47;;
3683;SDS011;1858;48.716;9.648;2022-10-31T16:19:30;4.10;;;2.40;;
3683;SDS011;1858;48.716;9.648;2022-10-31T16:22:23;16.40;;;3.47;;
3683;SDS011;1858;48.716;9.648;2022-10-31T16:27:34;7.00;;;3.33;;
3683;SDS011;1858;48.716;9.648;2022-10-31T16:33:29;5.53;;;1.80;;
3683;SDS011;1858;48.716;9.648;2022-10-31T16:36:48;9.60;;;2.37;;
3683;SDS011;1858;48.716;9.648;2022-10-31T16:38:49;5.27;;;2.70;;
3683;SDS011;1858;48.716;9.648;2022-10-31T16:41:17;6.37;;;3.77;;
3683;SDS011;1858;48.716;9.648;2022-10-31T16:46:36;3.70;;;2.07;;
3683;SDS011;1858;48.716;9.648;2022-10-31T16:49:04;4.60;;;3.63;;
3683;SDS011;1858;48.716;9.648;2022-10-31T16:54:22;4.97;;;2.93;;
3683;SDS011;1858;48.716;9.648;2022-10-31T16:56:50;8.93;;;3.17;;
3683;SDS011;1858;48.716;9.648;2022-10-31T17:04:54;5.60;;;2.57;;
3683;SDS011;1858;48.716;9.648;2022-10-31T17:07:22;6.67;;;3.00;;
3683;SDS011;1858;48.716;9.648;2022-10-31T17:09:51;10.23;;;5.03;;
3683;SDS011;1858;48.716;9.648;2022-10-31T17:12:25;12.90;;;4.93;;
3683;SDS011;1858;48.716;9.648;2022-10-31T17:14:50;9.00;;;4.07;;
3683;SDS011;1858;48.716;9.648;2022-10-31T17:17:19;6.40;;;3.10;;
3683;SDS011;1858;48.716;9.648;2022-10-31T17:22:52;5.23;;;2.23;;
3683;SDS011;1858;48.716;9.648;2022-10-31T17:25:22;3.87;;;2.50;;
3683;SDS011;1858;48.716;9.648;2022-10-31T17:27:52;4.10;;;2.40;;
3683;SDS011;1858;48.716;9.648;2022-10-31T17:33:02;6.10;;;3.10;;
3683;SDS011;1858;48.716;9.648;2022-10-31T17:35:31;5.77;;;3.60;;
3683;SDS011;1858;48.716;9.648;2022-10-31T17:49:11;6.70;;;3.30;;
3683;SDS011;1858;48.716;9.648;2022-10-31T17:51:39;14.00;;;4.03;;
3683;SDS011;1858;48.716;9.648;2022-10-31T17:54:08;9.33;;;4.50;;
3683;SDS011;1858;48.716;9.648;2022-10-31T17:59:25;5.33;;;2.90;;
3683;SDS011;1858;48.716;9.648;2022-10-31T18:01:55;8.37;;;5.03;;
3683;SDS011;1858;48.716;9.648;2022-10-31T18:04:25;13.13;;;5.80;;
3683;SDS011;1858;48.716;9.648;2022-10-31T18:06:54;12.77;;;4.87;;
3683;SDS011;1858;48.716;9.648;2022-10-31T18:09:22;12.30;;;5.80;;
3683;SDS011;1858;48.716;9.648;2022-10-31T18:11:50;17.30;;;6.37;;
3683;SDS011;1858;48.716;9.648;2022-10-31T18:17:07;12.30;;;5.23;;
3683;SDS011;1858;48.716;9.648;2022-10-31T18:19:35;18.87;;;6.30;;
3683;SDS011;1858;48.716;9.648;2022-10-31T18:24:45;8.90;;;5.90;;
3683;SDS011;1858;48.716;9.648;2022-10-31T18:27:13;15.67;;;6.90;;
3683;SDS011;1858;48.716;9.648;2022-10-31T18:32:30;9.77;;;6.50;;
3683;SDS011;1858;48.716;9.648;2022-10-31T18:34:58;18.77;;;7.20;;
3683;SDS011;1858;48.716;9.648;2022-10-31T18:37:26;7.90;;;5.17;;
3683;SDS011;1858;48.716;9.648;2022-10-31T18:39:55;12.90;;;7.23;;
3683;SDS011;1858;48.716;9.648;2022-10-31T18:42:23;13.30;;;6.80;;
3683;SDS011;1858;48.716;9.648;2022-10-31T18:44:51;15.07;;;6.60;;
3683;SDS011;1858;48.716;9.648;2022-10-31T18:47:20;18.97;;;6.73;;
3683;SDS011;1858;48.716;9.648;2022-10-31T18:49:48;13.23;;;6.80;;
3683;SDS011;1858;48.716;9.648;2022-10-31T18:52:17;13.60;;;6.70;;
3683;SDS011;1858;48.716;9.648;2022-10-31T18:54:45;15.73;;;7.47;;
3683;SDS011;1858;48.716;9.648;2022-10-31T18:57:13;11.40;;;5.90;;
3683;SDS011;1858;48.716;9.648;2022-10-31T19:05:41;10.77;;;5.73;;
3683;SDS011;1858;48.716;9.648;2022-10-31T19:08:10;13.37;;;5.43;;
3683;SDS011;1858;48.716;9.648;2022-10-31T19:10:39;13.17;;;5.90;;
3683;SDS011;1858;48.716;9.648;2022-10-31T19:13:08;16.30;;;6.53;;
3683;SDS011;1858;48.716;9.648;2022-10-31T19:15:36;11.10;;;5.97;;
3683;SDS011;1858;48.716;9.648;2022-10-31T19:18:05;12.43;;;5.73;;
3683;SDS011;1858;48.716;9.648;2022-10-31T19:20:33;10.30;;;5.90;;
3683;SDS011;1858;48.716;9.648;2022-10-31T19:25:50;11.43;;;6.07;;
3683;SDS011;1858;48.716;9.648;2022-10-31T19:31:07;11.17;;;6.33;;
3683;SDS011;1858;48.716;9.648;2022-10-31T19:36:24;19.60;;;5.27;;
3683;SDS011;1858;48.716;9.648;2022-10-31T19:38:54;11.30;;;6.17;;
3683;SDS011;1858;48.716;9.648;2022-10-31T19:41:24;11.77;;;6.20;;
3683;SDS011;1858;48.716;9.648;2022-10-31T19:46:42;13.90;;;6.57;;
3683;SDS011;1858;48.716;9.648;2022-10-31T19:51:58;10.40;;;6.43;;
3683;SDS011;1858;48.716;9.648;2022-10-31T19:54:27;8.20;;;5.47;;
3683;SDS011;1858;48.716;9.648;2022-10-31T19:59:43;9.40;;;4.27;;
3683;SDS011;1858;48.716;9.648;2022-10-31T20:04:59;6.80;;;4.50;;